createdAt,value
2023-03-06T00:00:25.104Z,9.4
2023-03-06T00:05:25.198Z,10.3
2023-03-06T00:10:25.102Z,11.2
2023-03-06T00:15:25.105Z,8.4
2023-03-06T00:20:25.116Z,10.8
2023-03-06T00:25:25.135Z,10.8
2023-03-06T00:30:25.116Z,9.4
2023-03-06T00:35:25.154Z,9.4
2023-03-06T00:40:25.109Z,9.5
2023-03-06T00:45:25.202Z,10.5
2023-03-06T00:50:25.103Z,11.6
2023-03-06T00:55:25.124Z,9.8
2023-03-06T01:00:25.111Z,10.4
2023-03-06T01:05:25.106Z,10.7
2023-03-06T01:10:25.108Z,8.1
2023-03-06T01:15:25.105Z,10.6
2023-03-06T01:20:25.100Z,10
2023-03-06T01:25:25.097Z,10.5
2023-03-06T01:30:25.114Z,9.6
2023-03-06T01:35:25.129Z,10.4
2023-03-06T01:40:25.126Z,10.9
2023-03-06T01:45:25.119Z,11.9
2023-03-06T01:50:25.107Z,12.8
2023-03-06T01:55:25.114Z,11.8
2023-03-06T02:00:25.109Z,13.5
2023-03-06T02:05:25.109Z,13.2
2023-03-06T02:10:25.116Z,11.6
2023-03-06T02:15:25.108Z,12.5
2023-03-06T02:20:25.110Z,10.9
2023-03-06T02:25:25.114Z,12.7
2023-03-06T02:30:25.111Z,14.1
2023-03-06T02:35:25.158Z,14.4
2023-03-06T02:40:25.122Z,14.7
2023-03-06T02:45:25.127Z,15.4
2023-03-06T02:50:25.112Z,16.2
2023-03-06T02:55:25.126Z,11.8
2023-03-06T03:00:25.106Z,9.9
2023-03-06T03:05:25.117Z,10
2023-03-06T03:10:25.106Z,11.2
2023-03-06T03:15:25.099Z,12.6
2023-03-06T03:20:25.105Z,12.3
2023-03-06T03:25:25.102Z,10.8
2023-03-06T03:30:25.108Z,12.8
2023-03-06T03:35:25.141Z,11.8
2023-03-06T03:40:25.107Z,16.7
2023-03-06T03:45:25.110Z,13.2
2023-03-06T03:50:25.114Z,13.7
2023-03-06T03:55:25.113Z,12.1
2023-03-06T04:00:25.105Z,11.9
2023-03-06T04:05:25.119Z,10.9
2023-03-06T04:10:25.105Z,12.3
2023-03-06T04:15:25.105Z,13.4
2023-03-06T04:20:25.108Z,12.3
2023-03-06T04:25:25.112Z,11.2
2023-03-06T04:30:25.104Z,12.9
2023-03-06T04:35:25.209Z,12.2
2023-03-06T04:40:25.115Z,14.2
2023-03-06T04:45:25.216Z,16.8
2023-03-06T04:50:25.107Z,15.4
2023-03-06T04:55:25.110Z,12.3
2023-03-06T05:00:25.217Z,13.9
2023-03-06T05:05:25.105Z,14.6
2023-03-06T05:10:25.105Z,12.8
2023-03-06T05:15:25.213Z,11.8
2023-03-06T05:20:25.105Z,14
2023-03-06T05:25:25.123Z,12.6
2023-03-06T05:30:25.098Z,13
2023-03-06T05:35:25.141Z,11
2023-03-06T05:40:25.108Z,12.3
2023-03-06T05:45:25.104Z,14.9
2023-03-06T05:50:25.105Z,14.9
2023-03-06T05:55:25.111Z,12.2
2023-03-06T06:00:25.107Z,8.6
2023-03-06T06:05:25.103Z,8.1
2023-03-06T06:10:25.100Z,9.4
2023-03-06T06:15:25.099Z,8.2
2023-03-06T06:20:25.117Z,7.1
2023-03-06T06:25:25.101Z,7.7
2023-03-06T06:30:25.112Z,9.3
2023-03-06T06:35:25.156Z,8.4
2023-03-06T06:40:25.097Z,9.3
2023-03-06T06:45:25.103Z,9.8
2023-03-06T06:50:25.104Z,8.5
2023-03-06T06:55:25.106Z,9.7
2023-03-06T07:00:25.113Z,9.9
2023-03-06T07:05:25.114Z,11.1
2023-03-06T07:10:25.115Z,12.3
2023-03-06T07:15:25.106Z,11
2023-03-06T07:20:25.098Z,11.4
2023-03-06T07:25:25.109Z,12.3
2023-03-06T07:30:25.100Z,13
2023-03-06T07:35:25.122Z,12.2
2023-03-06T07:40:25.119Z,16.4
2023-03-06T07:45:25.108Z,15.4
2023-03-06T07:50:25.113Z,13.3
2023-03-06T07:55:25.117Z,11.8
2023-03-06T08:00:25.105Z,10.9
2023-03-06T08:05:25.138Z,13.6
2023-03-06T08:10:25.108Z,9.5
2023-03-06T08:15:25.116Z,11.7
2023-03-06T08:20:25.156Z,10.1
2023-03-06T08:25:25.130Z,12.8
2023-03-06T08:30:25.160Z,13.4
2023-03-06T08:35:25.117Z,12.7
2023-03-06T08:40:25.119Z,12.6
2023-03-06T08:45:25.134Z,12.8
2023-03-06T08:50:25.110Z,14.6
2023-03-06T08:55:25.098Z,15.1
2023-03-06T09:00:25.157Z,16.1
2023-03-06T09:05:25.105Z,19.2
2023-03-06T09:10:25.222Z,15
2023-03-06T09:15:25.121Z,16.7
2023-03-06T09:20:25.118Z,22.7
2023-03-06T09:25:25.125Z,17.1
2023-03-06T09:30:25.110Z,17
2023-03-06T09:35:25.157Z,16.9
2023-03-06T09:40:25.122Z,19
2023-03-06T09:45:25.109Z,15.4
2023-03-06T09:50:25.103Z,17
2023-03-06T09:55:25.119Z,19.7
2023-03-06T10:00:25.103Z,20.2
2023-03-06T10:05:25.116Z,19.9
2023-03-06T10:10:25.104Z,21.9
2023-03-06T10:15:25.104Z,20.4
2023-03-06T10:20:25.097Z,18.6
2023-03-06T10:25:25.125Z,20.9
2023-03-06T10:30:25.106Z,21.6
2023-03-06T10:35:25.138Z,24.8
2023-03-06T10:40:25.107Z,19.9
2023-03-06T10:45:25.103Z,15.5
2023-03-06T10:50:25.110Z,22.5
2023-03-06T10:55:25.131Z,17.1
2023-03-06T11:00:25.127Z,20.4
2023-03-06T11:05:25.111Z,14.2
2023-03-06T11:10:25.103Z,17.4
2023-03-06T11:15:25.112Z,20.1
2023-03-06T11:20:25.100Z,16
2023-03-06T11:25:25.112Z,16.7
2023-03-06T11:30:25.102Z,21
2023-03-06T11:35:25.163Z,22.9
2023-03-06T11:40:25.099Z,31.2
2023-03-06T11:45:25.117Z,23.7
2023-03-06T11:50:25.112Z,18.5
2023-03-06T11:55:25.104Z,22.4
2023-03-06T12:00:25.104Z,19.9
2023-03-06T12:05:25.110Z,16.1
2023-03-06T12:10:25.119Z,32.3
2023-03-06T12:15:25.121Z,33.7
2023-03-06T12:20:25.110Z,21.8
2023-03-06T12:25:25.111Z,18.3
2023-03-06T12:30:25.118Z,13.6
2023-03-06T12:35:25.138Z,9.6
2023-03-06T12:40:25.108Z,13.8
2023-03-06T12:45:25.108Z,13.2
2023-03-06T12:50:25.119Z,15.4
2023-03-06T12:55:26.009Z,15.6
2023-03-06T13:00:25.113Z,12
2023-03-06T13:05:25.113Z,13.4
2023-03-06T13:10:25.107Z,11.1
2023-03-06T13:15:25.105Z,14.6
2023-03-06T13:20:25.105Z,17.6
2023-03-06T13:25:25.195Z,16.2
2023-03-06T13:30:25.106Z,12.7
2023-03-06T13:35:25.120Z,17.8
2023-03-06T13:40:25.110Z,17.8
2023-03-06T13:45:25.118Z,18.1
2023-03-06T13:50:25.109Z,19.6
2023-03-06T13:55:25.147Z,17.3
2023-03-06T14:00:25.108Z,15.7
2023-03-06T14:05:25.110Z,20.6
2023-03-06T14:10:25.107Z,11.9
2023-03-06T14:15:25.103Z,19.7
2023-03-06T14:20:25.099Z,13.2
2023-03-06T14:25:25.104Z,17.8
2023-03-06T14:30:26.308Z,15.5
2023-03-06T14:35:25.188Z,12.7
2023-03-06T14:40:25.107Z,14.3
2023-03-06T14:45:25.114Z,13.8
2023-03-06T14:50:25.113Z,15.4
2023-03-06T14:55:25.098Z,12.8
2023-03-06T15:00:25.123Z,12.4
2023-03-06T15:05:25.110Z,14.4
2023-03-06T15:10:25.111Z,16.5
2023-03-06T15:15:25.107Z,14.8
2023-03-06T15:20:25.094Z,12.1
2023-03-06T15:25:25.119Z,9.8
2023-03-06T15:30:25.104Z,11.2
2023-03-06T15:35:25.138Z,13.8
2023-03-06T15:40:25.110Z,13.2
2023-03-06T15:45:25.174Z,12.4
2023-03-06T15:50:25.106Z,11.8
2023-03-06T15:55:25.124Z,9.3
2023-03-06T16:00:27.514Z,10.5
2023-03-06T16:05:25.135Z,10.5
2023-03-06T16:10:25.108Z,11.1
2023-03-06T16:15:25.115Z,9
2023-03-06T16:20:25.104Z,10.6
2023-03-06T16:25:25.108Z,7.3
2023-03-06T16:30:25.108Z,9
2023-03-06T16:35:25.127Z,7.1
2023-03-06T16:40:25.105Z,8.6
2023-03-06T16:45:25.112Z,4.6
2023-03-06T16:50:25.118Z,7.6
2023-03-06T16:55:25.137Z,8.5
2023-03-06T17:00:25.136Z,8.6
2023-03-06T17:05:25.126Z,6.2
2023-03-06T17:10:25.145Z,7.9
2023-03-06T17:15:25.123Z,8.2
2023-03-06T17:20:25.126Z,7.8
2023-03-06T17:25:25.134Z,7.3
2023-03-06T17:30:25.131Z,7.4
2023-03-06T17:35:25.219Z,7.6
2023-03-06T17:40:25.296Z,12.9
2023-03-06T17:45:25.143Z,12.4
2023-03-06T17:50:25.115Z,16.8
2023-03-06T17:55:25.110Z,13.4
2023-03-06T18:00:25.109Z,18.5
2023-03-06T18:05:25.112Z,14.9
2023-03-06T18:10:25.109Z,15.6
2023-03-06T18:15:25.099Z,15.7
2023-03-06T18:20:25.101Z,16.1
2023-03-06T18:25:25.107Z,15.9
2023-03-06T18:30:25.109Z,15.2
2023-03-06T18:35:25.110Z,18.7
2023-03-06T18:40:25.105Z,20.4
2023-03-06T18:45:25.227Z,20
2023-03-06T18:50:25.103Z,18
2023-03-06T18:55:25.101Z,16.3
2023-03-06T19:00:25.105Z,18.4
2023-03-06T19:05:25.114Z,15.9
2023-03-06T19:10:25.111Z,15.9
2023-03-06T19:15:25.113Z,15.4
2023-03-06T19:20:25.102Z,12.1
2023-03-06T19:25:25.117Z,13.6
2023-03-06T19:30:25.111Z,13.3
2023-03-06T19:35:25.143Z,11.6
2023-03-06T19:40:25.107Z,13.4
2023-03-06T19:45:25.125Z,13
2023-03-06T19:50:25.127Z,11.5
2023-03-06T19:55:25.116Z,12.7
2023-03-06T20:00:25.110Z,10.4
2023-03-06T20:05:25.123Z,13.3
2023-03-06T20:10:25.119Z,9.7
2023-03-06T20:15:25.110Z,12.8
2023-03-06T20:20:25.115Z,9.6
2023-03-06T20:25:25.110Z,20.4
2023-03-06T20:30:26.378Z,21.7
2023-03-06T20:35:25.112Z,17
2023-03-06T20:40:25.147Z,19.9
2023-03-06T20:45:25.097Z,21.3
2023-03-06T20:50:25.095Z,15.1
2023-03-06T20:55:25.112Z,15.2
2023-03-06T21:00:25.104Z,25.2
2023-03-06T21:05:25.113Z,19.2
2023-03-06T21:10:25.113Z,17.5
2023-03-06T21:15:25.103Z,18
2023-03-06T21:20:25.101Z,21
2023-03-06T21:25:25.114Z,17.6
2023-03-06T21:30:25.111Z,19.8
2023-03-06T21:35:25.170Z,19.6
2023-03-06T21:40:25.129Z,15.8
2023-03-06T21:45:27.627Z,14.4
2023-03-06T21:50:25.117Z,15.4
2023-03-06T21:55:25.127Z,14.2
2023-03-06T22:00:25.114Z,21.3
2023-03-06T22:05:25.121Z,20.3
2023-03-06T22:10:25.107Z,13
2023-03-06T22:15:25.110Z,14.6
2023-03-06T22:20:25.124Z,11.9
2023-03-06T22:25:25.123Z,14.5
2023-03-06T22:30:25.112Z,13.5
2023-03-06T22:35:25.111Z,14.2
2023-03-06T22:40:25.105Z,13.3
2023-03-06T22:45:25.106Z,12
2023-03-06T22:50:25.109Z,14.8
2023-03-06T22:55:25.107Z,10.6
2023-03-06T23:00:25.112Z,11
2023-03-06T23:05:25.108Z,13.6
2023-03-06T23:10:25.112Z,15.3
2023-03-06T23:15:25.145Z,17
2023-03-06T23:20:25.108Z,15.9
2023-03-06T23:25:25.105Z,17
2023-03-06T23:30:25.111Z,17.2
2023-03-06T23:35:25.139Z,21
2023-03-06T23:40:25.116Z,20.2
2023-03-06T23:45:25.114Z,20.1
2023-03-06T23:50:25.107Z,18.7
2023-03-06T23:55:25.112Z,18.4
